< < Back
Terminal Aerodrome Forecast


Current Version              Previous Versions:   1  2  3  4  5  6  7  8  9  

Terminal Aerodrome Forecast

505
FTUS42 KCAE 251900 AAA
TAFAGS
TAF AMD
KAGS 251942Z 2520/2618 21010KT P6SM BKN020 WS020/22030KT
     FM260200 24009KT P6SM BKN005 WS020/22040KT
     FM261400 28010G18KT P6SM SCT006 BKN045=

Latest METAR

583
SAUS70 KWBC 252100 RRB
MTRAGS
METAR KAGS 252053Z 26008KT 10SM CLR 25/19 A2968 RMK AO2 SLP049 T02500194
56020


USA.gov is the U.S. government's official web portal to all federal, state and local government web resources and services.